Time;durP1;ratioP1;P1;durP2;ratioP2;P2;SDS_P1;SDS_P2;PMS_P1;PMS_P2;Temp;Humidity;BMP_temperature;BMP_pressure;BME280_temperature;BME280_humidity;BME280_pressure;Samples;Min_cycle;Max_cycle;Signal;HPM_P1;HPM_P2
2023/07/07 00:01:02;;;;;;;36.50;5.40;;;;;;;;;;107174;1274;22517;-82
2023/07/07 00:03:50;;;;;;;29.70;5.00;;;;;;;;;;106934;1274;22518;-80
2023/07/07 00:06:17;;;;;;;19.70;4.80;;;;;;;;;;107236;1257;25217;-77
2023/07/07 00:08:44;;;;;;;15.90;4.70;;;;;;;;;;107172;1272;22521;-84
2023/07/07 00:11:10;;;;;;;19.80;4.50;;;;;;;;;;107150;1273;22564;-77
2023/07/07 00:13:40;;;;;;;20.00;4.60;;;;;;;;;;107194;1273;25230;-77
2023/07/07 00:16:07;;;;;;;17.50;5.10;;;;;;;;;;107131;1256;22522;-78
2023/07/07 00:18:34;;;;;;;23.40;5.20;;;;;;;;;;107177;1274;22519;-85
2023/07/07 00:21:03;;;;;;;23.50;5.40;;;;;;;;;;107144;1274;22536;-82
2023/07/07 00:23:33;;;;;;;16.40;5.00;;;;;;;;;;107161;1274;22524;-85
2023/07/07 00:26:02;;;;;;;21.20;5.50;;;;;;;;;;107227;1263;26623;-82
2023/07/07 00:28:33;;;;;;;22.10;5.70;;;;;;;;;;107179;1273;22520;-82
2023/07/07 00:31:04;;;;;;;27.40;5.60;;;;;;;;;;107241;1273;24356;-84
2023/07/07 00:33:35;;;;;;;33.90;5.90;;;;;;;;;;107062;1273;24000;-81
2023/07/07 00:36:04;;;;;;;29.40;6.20;;;;;;;;;;107173;1256;23342;-84
2023/07/07 00:38:34;;;;;;;33.50;6.00;;;;;;;;;;107191;1274;22469;-79
2023/07/07 00:41:03;;;;;;;29.30;5.60;;;;;;;;;;107152;1274;22578;-82
2023/07/07 00:43:33;;;;;;;31.40;5.60;;;;;;;;;;107142;1274;22521;-81
2023/07/07 00:46:09;;;;;;;42.80;6.10;;;;;;;;;;107195;1250;23117;-83
2023/07/07 00:48:38;;;;;;;27.50;5.70;;;;;;;;;;107087;1273;22521;-79
2023/07/07 00:51:19;;;;;;;31.70;6.00;;;;;;;;;;107121;1273;22531;-81
2023/07/07 00:53:57;;;;;;;26.30;5.00;;;;;;;;;;107230;1273;25203;-77
2023/07/07 00:56:37;;;;;;;22.90;5.30;;;;;;;;;;107093;1267;22523;-81
2023/07/07 00:59:24;;;;;;;17.70;4.90;;;;;;;;;;107189;1274;22559;-82
2023/07/07 01:01:54;;;;;;;16.70;4.50;;;;;;;;;;107228;1274;22634;-83
2023/07/07 01:04:24;;;;;;;18.40;5.20;;;;;;;;;;107113;1272;22480;-81
2023/07/07 01:06:53;;;;;;;17.20;4.30;;;;;;;;;;106960;1258;24250;-81
2023/07/07 01:09:22;;;;;;;21.70;4.60;;;;;;;;;;107197;1273;22521;-81
2023/07/07 01:11:52;;;;;;;17.20;3.70;;;;;;;;;;107161;1273;22544;-83
2023/07/07 01:14:25;;;;;;;18.60;4.10;;;;;;;;;;107103;1273;25221;-80
2023/07/07 01:17:01;;;;;;;18.30;4.70;;;;;;;;;;107263;1262;22982;-84
2023/07/07 01:19:40;;;;;;;13.60;4.20;;;;;;;;;;107219;1274;24241;-81
2023/07/07 01:22:19;;;;;;;14.40;4.90;;;;;;;;;;107162;1274;22525;-77
2023/07/07 01:25:05;;;;;;;13.90;5.40;;;;;;;;;;107154;1274;22632;-78
2023/07/07 01:27:53;;;;;;;20.90;6.10;;;;;;;;;;107240;1254;22516;-85
2023/07/07 01:30:43;;;;;;;19.90;5.30;;;;;;;;;;107182;1273;23369;-77
2023/07/07 01:33:13;;;;;;;19.60;5.50;;;;;;;;;;107148;1273;22507;-82
2023/07/07 01:35:40;;;;;;;18.40;5.80;;;;;;;;;;107210;1273;24940;-78
2023/07/07 01:38:27;;;;;;;16.60;5.10;;;;;;;;;;107068;1257;22520;-81
2023/07/07 01:41:02;;;;;;;16.50;4.80;;;;;;;;;;106964;1274;23863;-78
2023/07/07 01:43:51;;;;;;;21.30;4.40;;;;;;;;;;107054;1274;24363;-82
2023/07/07 01:46:50;;;;;;;12.20;4.20;;;;;;;;;;107223;1274;25324;-82
2023/07/07 01:49:31;;;;;;;13.20;4.20;;;;;;;;;;107143;1257;22591;-80
2023/07/07 01:52:32;;;;;;;17.40;5.30;;;;;;;;;;107200;1273;22990;-80
2023/07/07 01:55:22;;;;;;;;;;;;;;;;;;;;;
2023/07/07 01:58:09;;;;;;;22.60;5.00;;;;;;;;;;107105;1257;22547;-78
2023/07/07 02:00:41;;;;;;;21.40;5.60;;;;;;;;;;107058;1275;22522;-78
2023/07/07 02:03:17;;;;;;;32.20;6.80;;;;;;;;;;107130;1275;23916;-82
2023/07/07 02:05:48;;;;;;;41.40;7.00;;;;;;;;;;106932;1275;22541;-77
2023/07/07 02:08:35;;;;;;;33.10;8.40;;;;;;;;;;107006;1269;24212;-83
2023/07/07 02:11:06;;;;;;;39.10;7.50;;;;;;;;;;107186;1274;24233;-84
2023/07/07 02:13:38;;;;;;;36.50;7.80;;;;;;;;;;106971;1274;22524;-84
2023/07/07 02:16:11;;;;;;;29.00;7.10;;;;;;;;;;107093;1274;22523;-83
2023/07/07 02:18:59;;;;;;;32.50;7.20;;;;;;;;;;106923;1260;25280;-78
2023/07/07 02:21:24;;;;;;;22.80;7.20;;;;;;;;;;107131;1275;24196;-84
2023/07/07 02:23:51;;;;;;;27.00;7.40;;;;;;;;;;107187;1275;22480;-77
2023/07/07 02:26:18;;;;;;;22.20;6.00;;;;;;;;;;106966;1275;22514;-78
2023/07/07 02:28:45;;;;;;;23.00;6.40;;;;;;;;;;107189;1274;22569;-78
2023/07/07 02:31:13;;;;;;;17.50;5.50;;;;;;;;;;107232;1274;24237;-83
2023/07/07 02:33:40;;;;;;;19.50;6.30;;;;;;;;;;107120;1274;22507;-77
2023/07/07 02:36:07;;;;;;;15.30;5.00;;;;;;;;;;107036;1274;22516;-81
2023/07/07 02:38:35;;;;;;;16.20;5.20;;;;;;;;;;107146;1257;22618;-84
2023/07/07 02:41:02;;;;;;;14.00;4.80;;;;;;;;;;106931;1275;22518;-82
2023/07/07 02:43:29;;;;;;;21.30;4.90;;;;;;;;;;106992;1275;26479;-82
2023/07/07 02:45:56;;;;;;;27.20;5.40;;;;;;;;;;107017;1275;24199;-78
2023/07/07 02:48:26;;;;;;;40.80;6.60;;;;;;;;;;107169;1251;22534;-78
2023/07/07 02:51:00;;;;;;;37.00;5.60;;;;;;;;;;107127;1274;25261;-81
2023/07/07 02:53:28;;;;;;;35.40;6.60;;;;;;;;;;107025;1274;22514;-77
2023/07/07 02:55:58;;;;;;;36.60;6.20;;;;;;;;;;106823;1274;25496;-80
2023/07/07 02:58:25;;;;;;;29.60;6.20;;;;;;;;;;107016;1274;22519;-78
2023/07/07 03:00:53;;;;;;;27.60;6.50;;;;;;;;;;106829;1259;25258;-81
2023/07/07 03:03:20;;;;;;;30.10;6.50;;;;;;;;;;106942;1275;22641;-78
2023/07/07 03:06:07;;;;;;;31.40;5.50;;;;;;;;;;106953;1275;26641;-82
2023/07/07 03:08:44;;;;;;;27.90;6.50;;;;;;;;;;107008;1252;22523;-82
2023/07/07 03:11:13;;;;;;;23.30;5.40;;;;;;;;;;107053;1274;22519;-81
2023/07/07 03:13:56;;;;;;;29.00;5.10;;;;;;;;;;106984;1274;22482;-78
2023/07/07 03:16:32;;;;;;;16.70;4.10;;;;;;;;;;107211;1274;24662;-81
2023/07/07 03:19:08;;;;;;;16.00;4.70;;;;;;;;;;107176;1275;22567;-78
2023/07/07 03:21:41;;;;;;;11.90;4.70;;;;;;;;;;107035;1275;22579;-78
2023/07/07 03:24:32;;;;;;;13.90;4.10;;;;;;;;;;106976;1275;23123;-78
2023/07/07 03:27:02;;;;;;;14.30;4.30;;;;;;;;;;107192;1275;24248;-78
2023/07/07 03:29:37;;;;;;;15.10;6.10;;;;;;;;;;106997;1256;24212;-83
2023/07/07 03:32:07;;;;;;;14.70;6.50;;;;;;;;;;106923;1269;22507;-78
2023/07/07 03:34:49;;;;;;;17.80;6.20;;;;;;;;;;107123;1273;25391;-78
2023/07/07 03:37:19;;;;;;;22.40;5.80;;;;;;;;;;106998;1272;25344;-79
2023/07/07 03:39:49;;;;;;;20.70;5.90;;;;;;;;;;107149;1259;22996;-81
2023/07/07 03:42:19;;;;;;;27.00;6.40;;;;;;;;;;107081;1272;25223;-78
2023/07/07 03:44:48;;;;;;;19.90;5.50;;;;;;;;;;107204;1272;22520;-84
2023/07/07 03:47:15;;;;;;;18.90;5.50;;;;;;;;;;107234;1273;23898;-77
2023/07/07 03:49:43;;;;;;;15.90;5.50;;;;;;;;;;107253;1257;24195;-79
2023/07/07 03:52:13;;;;;;;16.90;5.10;;;;;;;;;;107224;1273;23124;-82
2023/07/07 03:54:40;;;;;;;15.30;5.80;;;;;;;;;;107196;1272;22558;-78
2023/07/07 03:57:13;;;;;;;16.10;5.10;;;;;;;;;;107048;1272;22511;-82
2023/07/07 03:59:43;;;;;;;19.30;5.30;;;;;;;;;;107191;1257;22618;-78
2023/07/07 04:02:30;;;;;;;20.50;4.90;;;;;;;;;;106973;1275;23323;-77
2023/07/07 04:04:57;;;;;;;15.50;5.30;;;;;;;;;;107177;1274;25584;-85
2023/07/07 04:07:24;;;;;;;16.50;5.10;;;;;;;;;;107216;1274;22534;-83
2023/07/07 04:09:53;;;;;;;21.50;5.80;;;;;;;;;;107081;1272;22607;-77
2023/07/07 04:12:22;;;;;;;18.60;5.30;;;;;;;;;;106989;1259;22530;-78
2023/07/07 04:14:52;;;;;;;17.30;5.70;;;;;;;;;;107210;1273;22522;-77
2023/07/07 04:17:21;;;;;;;17.30;5.80;;;;;;;;;;107265;1272;25281;-78
2023/07/07 04:19:48;;;;;;;19.80;5.40;;;;;;;;;;107238;1272;22520;-77
2023/07/07 04:22:15;;;;;;;13.20;5.00;;;;;;;;;;107106;1266;22530;-83
2023/07/07 04:25:02;;;;;;;15.60;6.40;;;;;;;;;;107188;1274;22565;-82
2023/07/07 04:27:32;;;;;;;19.00;6.80;;;;;;;;;;107099;1275;25313;-77
2023/07/07 04:29:59;;;;;;;23.00;7.10;;;;;;;;;;107201;1274;25175;-79
2023/07/07 04:32:28;;;;;;;20.70;7.90;;;;;;;;;;107184;1256;23905;-82
2023/07/07 04:34:55;;;;;;;17.60;7.70;;;;;;;;;;107218;1275;22657;-80
2023/07/07 04:37:25;;;;;;;17.00;6.80;;;;;;;;;;107183;1274;22504;-84
2023/07/07 04:39:52;;;;;;;15.70;6.40;;;;;;;;;;107200;1274;22947;-81
2023/07/07 04:42:22;;;;;;;19.20;6.60;;;;;;;;;;107095;1257;24219;-82
2023/07/07 04:44:54;;;;;;;15.80;6.70;;;;;;;;;;107145;1272;24191;-80
2023/07/07 04:47:41;;;;;;;21.00;7.30;;;;;;;;;;107232;1273;24319;-77
2023/07/07 04:50:08;;;;;;;17.40;7.10;;;;;;;;;;107218;1272;24218;-81
2023/07/07 04:52:43;;;;;;;18.40;6.80;;;;;;;;;;106963;1271;24057;-80
2023/07/07 04:55:12;;;;;;;33.20;7.10;;;;;;;;;;107140;1274;22577;-82
2023/07/07 04:57:39;;;;;;;25.60;6.00;;;;;;;;;;107186;1274;22534;-77
2023/07/07 05:00:12;;;;;;;32.60;6.30;;;;;;;;;;107236;1274;22518;-84
2023/07/07 05:02:39;;;;;;;29.00;6.00;;;;;;;;;;107114;1260;23347;-80
2023/07/07 05:05:17;;;;;;;;;;;;;;;;;;;;;
2023/07/07 05:07:46;;;;;;;32.60;5.20;;;;;;;;;;107164;1273;22524;-83
2023/07/07 05:10:15;;;;;;;29.20;4.40;;;;;;;;;;107083;1273;22944;-82
2023/07/07 05:12:42;;;;;;;11.60;3.00;;;;;;;;;;107137;1273;22521;-81
2023/07/07 05:15:32;;;;;;;12.20;2.80;;;;;;;;;;107101;1275;22520;-82
2023/07/07 05:18:34;;;;;;;7.20;3.10;;;;;;;;;;107180;1274;22607;-78
2023/07/07 05:21:05;;;;;;;13.70;3.40;;;;;;;;;;107193;1274;22477;-80
2023/07/07 05:23:34;;;;;;;9.00;3.20;;;;;;;;;;107146;1254;22521;-82
2023/07/07 05:26:01;;;;;;;7.50;3.20;;;;;;;;;;107000;1273;25265;-84
2023/07/07 05:28:28;;;;;;;8.90;3.20;;;;;;;;;;107136;1273;24402;-78
2023/07/07 05:30:55;;;;;;;10.60;3.50;;;;;;;;;;106936;1273;22601;-82
2023/07/07 05:33:22;;;;;;;9.40;3.60;;;;;;;;;;107110;1257;24215;-81
2023/07/07 05:36:09;;;;;;;11.40;4.20;;;;;;;;;;107089;1274;22602;-78
2023/07/07 05:38:39;;;;;;;13.10;3.90;;;;;;;;;;107157;1274;22566;-79
2023/07/07 05:41:12;;;;;;;11.70;4.30;;;;;;;;;;107194;1275;22708;-79
2023/07/07 05:43:38;;;;;;;14.30;4.60;;;;;;;;;;107140;1256;22524;-78
2023/07/07 05:46:11;;;;;;;11.30;4.00;;;;;;;;;;107182;1273;25173;-82
2023/07/07 05:48:39;;;;;;;11.00;3.90;;;;;;;;;;107136;1273;25325;-78
2023/07/07 05:51:16;;;;;;;13.40;4.10;;;;;;;;;;107237;1273;22521;-84
2023/07/07 05:53:47;;;;;;;11.90;3.50;;;;;;;;;;107202;1260;25238;-78
2023/07/07 05:56:44;;;;;;;10.30;3.50;;;;;;;;;;107119;1274;24193;-78
2023/07/07 05:59:11;;;;;;;9.60;3.90;;;;;;;;;;107226;1274;25274;-79
2023/07/07 06:01:48;;;;;;;;;;;;;;;;;;;;;
2023/07/07 06:04:20;;;;;;;10.70;3.50;;;;;;;;;;107156;1256;22510;-83
2023/07/07 06:06:47;;;;;;;12.90;3.50;;;;;;;;;;107511;1273;22521;-77
2023/07/07 06:09:20;;;;;;;10.40;3.80;;;;;;;;;;107303;1273;24454;-86
2023/07/07 06:11:47;;;;;;;8.10;3.30;;;;;;;;;;104640;1273;3331408;-82
2023/07/07 06:14:35;;;;;;;10.10;3.60;;;;;;;;;;107068;1257;22504;-83
2023/07/07 06:17:21;;;;;;;;;;;;;;;;;;;;;
2023/07/07 06:19:48;;;;;;;12.90;3.40;;;;;;;;;;107267;1273;24704;-82
2023/07/07 06:22:17;;;;;;;8.20;3.10;;;;;;;;;;107254;1273;25408;-83
2023/07/07 06:24:47;;;;;;;9.80;3.40;;;;;;;;;;107205;1257;22518;-86
2023/07/07 06:27:17;;;;;;;9.30;3.50;;;;;;;;;;107172;1274;22523;-84
2023/07/07 06:29:44;;;;;;;9.60;3.30;;;;;;;;;;107165;1274;22540;-82
2023/07/07 06:32:11;;;;;;;7.40;3.00;;;;;;;;;;107103;1274;25227;-80
2023/07/07 06:34:38;;;;;;;11.80;3.30;;;;;;;;;;107042;1274;24246;-77
2023/07/07 06:37:08;;;;;;;9.80;2.90;;;;;;;;;;107168;1274;22625;-84
2023/07/07 06:39:37;;;;;;;9.40;3.20;;;;;;;;;;106967;1260;22791;-82
2023/07/07 06:42:08;;;;;;;8.30;3.00;;;;;;;;;;107216;1273;26490;-83
2023/07/07 06:45:01;;;;;;;11.90;3.40;;;;;;;;;;107220;1257;26516;-80
2023/07/07 06:47:29;;;;;;;7.60;2.80;;;;;;;;;;107207;1273;25415;-78
2023/07/07 06:49:59;;;;;;;10.90;3.40;;;;;;;;;;107228;1273;22527;-84
2023/07/07 06:52:26;;;;;;;14.00;3.00;;;;;;;;;;110662;1273;22588;-78
2023/07/07 06:54:56;;;;;;;14.50;3.10;;;;;;;;;;110706;1251;22116;-79
2023/07/07 06:57:23;;;;;;;17.90;4.10;;;;;;;;;;110533;1273;22752;-79
2023/07/07 06:59:49;;;;;;;11.10;3.20;;;;;;;;;;110607;1273;21853;-78
2023/07/07 07:02:23;;;;;;;15.20;3.20;;;;;;;;;;110626;1273;22289;-78
2023/07/07 07:04:50;;;;;;;12.90;3.40;;;;;;;;;;110695;1254;22135;-79
2023/07/07 07:07:17;;;;;;;15.90;3.80;;;;;;;;;;110614;1272;22139;-78
2023/07/07 07:09:44;;;;;;;13.60;3.20;;;;;;;;;;110786;1273;22163;-79
2023/07/07 07:12:10;;;;;;;13.20;3.40;;;;;;;;;;110802;1273;22382;-78
2023/07/07 07:14:37;;;;;;;14.40;3.50;;;;;;;;;;110627;1256;22183;-79
2023/07/07 07:17:04;;;;;;;10.40;3.60;;;;;;;;;;110640;1273;22061;-78
2023/07/07 07:19:30;;;;;;;10.70;3.00;;;;;;;;;;110690;1273;22094;-79
2023/07/07 07:21:57;;;;;;;12.50;3.40;;;;;;;;;;110611;1273;22197;-78
2023/07/07 07:24:24;;;;;;;11.30;3.00;;;;;;;;;;110563;1256;22151;-79
2023/07/07 07:26:51;;;;;;;9.10;3.20;;;;;;;;;;110782;1273;22120;-78
2023/07/07 07:29:19;;;;;;;6.70;2.60;;;;;;;;;;110800;1273;22304;-78
2023/07/07 07:31:46;;;;;;;10.30;3.40;;;;;;;;;;110643;1273;22186;-79
2023/07/07 07:34:26;;;;;;;14.90;6.20;;;;;;;;;;110628;1250;22137;-78
2023/07/07 07:36:54;;;;;;;13.10;3.60;;;;;;;;;;110615;1273;22896;-79
2023/07/07 07:39:21;;;;;;;14.40;2.90;;;;;;;;;;110615;1273;22196;-78
2023/07/07 07:41:48;;;;;;;8.60;3.50;;;;;;;;;;110626;1273;22111;-79
2023/07/07 07:44:16;;;;;;;13.20;4.60;;;;;;;;;;110690;1251;22680;-79
2023/07/07 07:46:44;;;;;;;10.90;4.10;;;;;;;;;;110629;1273;22169;-79
2023/07/07 07:49:10;;;;;;;10.90;3.80;;;;;;;;;;110625;1274;22068;-78
2023/07/07 07:51:38;;;;;;;11.90;2.50;;;;;;;;;;110624;1266;22290;-79
2023/07/07 07:54:06;;;;;;;9.20;2.50;;;;;;;;;;110669;1274;22113;-79
2023/07/07 07:56:33;;;;;;;12.70;2.50;;;;;;;;;;111159;1251;23009;-79
2023/07/07 07:59:00;;;;;;;10.00;3.00;;;;;;;;;;110675;1273;22965;-79
2023/07/07 08:01:27;;;;;;;12.90;3.20;;;;;;;;;;110768;1273;22851;-79
2023/07/07 08:03:54;;;;;;;11.90;2.70;;;;;;;;;;110675;1273;22080;-79
2023/07/07 08:06:21;;;;;;;9.30;2.80;;;;;;;;;;111073;1256;22094;-79
2023/07/07 08:08:47;;;;;;;12.10;4.60;;;;;;;;;;110525;1274;22183;-79
2023/07/07 08:11:16;;;;;;;10.30;3.10;;;;;;;;;;110542;1274;21953;-76
2023/07/07 08:13:43;;;;;;;8.90;2.80;;;;;;;;;;110667;1274;22091;-76
2023/07/07 08:16:10;;;;;;;6.60;2.70;;;;;;;;;;111019;1250;22113;-76
2023/07/07 08:18:40;;;;;;;10.10;3.00;;;;;;;;;;110768;1273;22129;-76
2023/07/07 08:21:07;;;;;;;11.80;3.00;;;;;;;;;;110689;1273;22099;-77
2023/07/07 08:23:34;;;;;;;8.80;2.80;;;;;;;;;;110761;1273;22104;-76
2023/07/07 08:26:00;;;;;;;9.40;2.90;;;;;;;;;;110766;1251;22071;-76
2023/07/07 08:28:27;;;;;;;8.30;3.20;;;;;;;;;;110650;1274;22109;-76
2023/07/07 08:30:54;;;;;;;25.10;9.90;;;;;;;;;;110656;1274;22876;-76
2023/07/07 08:33:21;;;;;;;29.00;13.70;;;;;;;;;;110630;1274;22780;-76
2023/07/07 08:35:48;;;;;;;10.90;4.00;;;;;;;;;;110736;1254;22115;-76
2023/07/07 08:38:14;;;;;;;7.30;2.60;;;;;;;;;;110769;1273;22529;-76
2023/07/07 08:40:50;;;;;;;9.80;2.80;;;;;;;;;;110750;1273;22110;-76
2023/07/07 08:43:17;;;;;;;11.30;2.90;;;;;;;;;;110650;1273;22097;-77
2023/07/07 08:45:52;;;;;;;15.80;5.50;;;;;;;;;;110820;1251;22285;-80
2023/07/07 08:48:32;;;;;;;12.30;4.30;;;;;;;;;;110635;1274;22135;-78
2023/07/07 08:51:01;;;;;;;10.60;4.20;;;;;;;;;;110620;1274;22178;-78
2023/07/07 08:53:37;;;;;;;7.80;3.00;;;;;;;;;;110603;1275;22100;-77
2023/07/07 08:56:14;;;;;;;11.80;3.30;;;;;;;;;;110624;1254;22121;-77
2023/07/07 08:58:44;;;;;;;9.60;3.70;;;;;;;;;;110775;1273;22163;-78
2023/07/07 09:01:50;;;;;;;9.20;3.60;;;;;;;;;;110703;1273;22128;-78
2023/07/07 09:04:25;;;;;;;23.50;13.80;;;;;;;;;;110042;1282;22794;-78
2023/07/07 09:07:08;;;;;;;31.40;19.90;;;;;;;;;;110204;1259;22224;-78
2023/07/07 09:09:41;;;;;;;16.10;7.30;;;;;;;;;;110019;1282;22174;-79
2023/07/07 09:12:16;;;;;;;9.80;2.70;;;;;;;;;;110069;1282;22956;-76
2023/07/07 09:14:45;;;;;;;7.60;2.70;;;;;;;;;;110016;1282;22278;-76
2023/07/07 09:17:38;;;;;;;5.80;2.40;;;;;;;;;;110211;1259;23013;-77
2023/07/07 09:20:06;;;;;;;6.90;2.30;;;;;;;;;;110003;1282;22243;-78
2023/07/07 09:22:38;;;;;;;7.80;2.00;;;;;;;;;;110012;1282;22190;-77
2023/07/07 09:25:22;;;;;;;7.90;2.40;;;;;;;;;;110062;1282;22166;-78
2023/07/07 09:27:59;;;;;;;7.90;2.60;;;;;;;;;;110153;1261;22161;-77
2023/07/07 09:30:28;;;;;;;6.10;2.10;;;;;;;;;;109991;1282;21720;-77
2023/07/07 09:32:57;;;;;;;7.10;2.30;;;;;;;;;;110001;1282;22145;-78
2023/07/07 09:35:27;;;;;;;5.00;2.20;;;;;;;;;;110523;1273;22136;-78
2023/07/07 09:38:03;;;;;;;6.90;2.30;;;;;;;;;;110944;1251;22141;-78
2023/07/07 09:40:39;;;;;;;6.80;2.60;;;;;;;;;;110629;1274;22081;-77
2023/07/07 09:43:22;;;;;;;7.00;2.20;;;;;;;;;;110667;1274;22096;-77
2023/07/07 09:46:01;;;;;;;7.40;2.30;;;;;;;;;;110664;1274;22153;-77
2023/07/07 09:48:41;;;;;;;8.00;2.10;;;;;;;;;;110745;1256;22192;-78
2023/07/07 09:51:18;;;;;;;9.80;2.40;;;;;;;;;;110760;1273;22093;-78
2023/07/07 09:53:46;;;;;;;10.40;2.60;;;;;;;;;;110662;1273;22104;-77
2023/07/07 09:56:19;;;;;;;6.40;2.20;;;;;;;;;;110652;1273;22833;-77
2023/07/07 09:58:50;;;;;;;5.90;2.30;;;;;;;;;;110732;1254;22116;-78
2023/07/07 10:01:18;;;;;;;8.40;2.50;;;;;;;;;;110593;1274;22119;-78
2023/07/07 10:03:46;;;;;;;5.30;2.60;;;;;;;;;;110497;1274;22117;-78
2023/07/07 10:06:32;;;;;;;8.00;2.30;;;;;;;;;;110499;1271;22108;-78
2023/07/07 10:09:03;;;;;;;8.70;2.10;;;;;;;;;;110941;1257;22826;-78
2023/07/07 10:11:37;;;;;;;7.80;2.60;;;;;;;;;;110631;1273;22192;-78
2023/07/07 10:14:09;;;;;;;9.50;2.30;;;;;;;;;;110663;1273;22807;-78
2023/07/07 10:16:45;;;;;;;7.70;2.20;;;;;;;;;;110552;1269;22186;-78
2023/07/07 10:19:13;;;;;;;7.70;2.10;;;;;;;;;;111050;1253;22108;-78
2023/07/07 10:21:41;;;;;;;6.30;2.30;;;;;;;;;;110632;1274;22170;-83
2023/07/07 10:24:35;;;;;;;8.30;2.20;;;;;;;;;;110624;1274;22941;-79
2023/07/07 10:27:28;;;;;;;5.90;1.90;;;;;;;;;;110593;1251;22378;-80
2023/07/07 10:30:07;;;;;;;8.90;2.50;;;;;;;;;;110544;1273;22146;-79
2023/07/07 10:32:34;;;;;;;9.10;2.40;;;;;;;;;;110539;1273;22131;-81
2023/07/07 10:35:06;;;;;;;4.60;2.10;;;;;;;;;;110519;1273;22765;-78
2023/07/07 10:37:34;;;;;;;8.60;2.30;;;;;;;;;;110730;1267;22594;-80
2023/07/07 10:40:03;;;;;;;6.30;2.10;;;;;;;;;;110487;1267;22128;-80
2023/07/07 10:42:31;;;;;;;5.40;2.30;;;;;;;;;;110606;1274;22573;-79
2023/07/07 10:44:59;;;;;;;5.30;2.00;;;;;;;;;;110634;1274;22165;-79
2023/07/07 10:47:32;;;;;;;5.30;2.00;;;;;;;;;;110517;1274;22106;-78
2023/07/07 10:50:04;;;;;;;6.80;2.40;;;;;;;;;;110614;1257;22158;-79
2023/07/07 10:52:43;;;;;;;6.10;2.10;;;;;;;;;;110615;1274;22498;-80
2023/07/07 10:55:19;;;;;;;5.30;2.10;;;;;;;;;;110656;1270;22837;-78
2023/07/07 10:57:46;;;;;;;4.30;2.10;;;;;;;;;;110858;1266;22084;-79
2023/07/07 11:00:34;;;;;;;5.10;2.10;;;;;;;;;;110930;1256;22835;-77
2023/07/07 11:03:37;;;;;;;6.30;2.10;;;;;;;;;;110473;1276;22317;-78
2023/07/07 11:10:07;;;;;;;6.20;2.20;;;;;;;;;;110526;1257;22135;-78
2023/07/07 11:12:35;;;;;;;5.60;2.10;;;;;;;;;;110623;1275;22689;-77
2023/07/07 11:15:09;;;;;;;5.70;2.10;;;;;;;;;;110612;1275;22020;-78
2023/07/07 11:17:51;;;;;;;5.20;2.00;;;;;;;;;;110604;1275;22098;-78
2023/07/07 11:20:25;;;;;;;5.90;2.40;;;;;;;;;;110917;1253;22123;-77
2023/07/07 11:23:09;;;;;;;5.70;1.90;;;;;;;;;;110481;1276;22089;-78
2023/07/07 11:25:49;;;;;;;6.60;2.50;;;;;;;;;;110609;1275;22139;-83
2023/07/07 11:28:16;;;;;;;5.30;2.10;;;;;;;;;;110583;1275;22118;-77
2023/07/07 11:31:04;;;;;;;8.60;3.50;;;;;;;;;;111031;1256;22160;-80
2023/07/07 11:34:01;;;;;;;5.50;2.30;;;;;;;;;;110608;1275;22218;-77
2023/07/07 11:37:00;;;;;;;7.00;2.50;;;;;;;;;;110594;1275;22752;-79
2023/07/07 11:39:30;;;;;;;6.30;2.30;;;;;;;;;;110636;1254;23152;-79
2023/07/07 11:41:57;;;;;;;7.30;2.30;;;;;;;;;;110594;1275;22667;-78
2023/07/07 11:44:30;;;;;;;6.70;2.40;;;;;;;;;;110498;1276;22296;-78
2023/07/07 11:47:10;;;;;;;7.20;2.60;;;;;;;;;;110602;1276;22089;-78
2023/07/07 11:50:15;;;;;;;7.50;2.50;;;;;;;;;;110638;1257;22183;-77
2023/07/07 11:53:11;;;;;;;7.00;2.30;;;;;;;;;;109904;1284;22180;-79
2023/07/07 11:55:59;;;;;;;5.80;2.40;;;;;;;;;;109934;1284;22953;-78
2023/07/07 11:58:27;;;;;;;5.80;2.30;;;;;;;;;;109964;1284;22159;-78
2023/07/07 12:00:55;;;;;;;6.60;2.10;;;;;;;;;;110097;1265;22158;-78
2023/07/07 12:03:40;;;;;;;6.00;2.10;;;;;;;;;;109965;1284;22152;-78
2023/07/07 12:06:16;;;;;;;5.40;2.40;;;;;;;;;;109843;1285;22229;-78
2023/07/07 12:08:49;;;;;;;7.50;2.60;;;;;;;;;;109851;1285;22116;-78
2023/07/07 12:11:37;;;;;;;7.00;2.00;;;;;;;;;;109849;1266;22176;-79
2023/07/07 12:14:14;;;;;;;6.00;2.10;;;;;;;;;;109908;1284;22674;-79
2023/07/07 12:16:44;;;;;;;7.30;2.30;;;;;;;;;;109880;1280;22163;-79
2023/07/07 12:19:34;;;;;;;6.20;2.00;;;;;;;;;;109948;1284;22289;-77
2023/07/07 12:22:04;;;;;;;7.80;1.60;;;;;;;;;;109933;1267;22142;-79
2023/07/07 12:24:39;;;;;;;6.10;2.50;;;;;;;;;;110330;1278;21979;-79
2023/07/07 12:27:25;;;;;;;6.10;2.10;;;;;;;;;;110166;1278;22756;-80
2023/07/07 12:29:58;;;;;;;7.20;2.40;;;;;;;;;;110380;1268;22357;-79
2023/07/07 12:32:27;;;;;;;4.70;1.70;;;;;;;;;;110523;1261;22711;-79
2023/07/07 12:35:06;;;;;;;6.20;2.40;;;;;;;;;;110439;1277;22200;-77
2023/07/07 12:37:34;;;;;;;6.90;2.10;;;;;;;;;;110220;1277;22077;-78
2023/07/07 12:40:20;;;;;;;6.90;2.40;;;;;;;;;;110403;1257;22838;-79
2023/07/07 12:42:52;;;;;;;5.40;2.00;;;;;;;;;;110626;1257;22240;-78
2023/07/07 12:45:33;;;;;;;5.90;2.00;;;;;;;;;;110283;1278;22324;-78
2023/07/07 12:48:08;;;;;;;6.20;2.40;;;;;;;;;;110376;1278;22861;-78
2023/07/07 12:50:42;;;;;;;6.70;2.20;;;;;;;;;;110163;1254;22337;-79
2023/07/07 12:53:20;;;;;;;4.50;1.80;;;;;;;;;;110333;1278;22669;-78
2023/07/07 12:56:02;;;;;;;5.90;2.20;;;;;;;;;;110332;1278;22870;-79
2023/07/07 12:58:30;;;;;;;6.50;2.20;;;;;;;;;;110474;1270;22241;-79
2023/07/07 13:01:14;;;;;;;6.60;2.20;;;;;;;;;;110476;1254;21749;-77
2023/07/07 13:03:54;;;;;;;5.30;2.20;;;;;;;;;;110343;1278;22257;-79
2023/07/07 13:06:34;;;;;;;4.70;1.90;;;;;;;;;;110439;1277;22809;-79
2023/07/07 13:09:15;;;;;;;4.80;2.20;;;;;;;;;;110321;1278;22124;-77
2023/07/07 13:11:48;;;;;;;6.70;2.00;;;;;;;;;;110609;1257;22199;-77
2023/07/07 13:14:31;;;;;;;5.60;2.00;;;;;;;;;;110467;1277;22860;-76
2023/07/07 13:17:09;;;;;;;7.80;2.30;;;;;;;;;;110455;1277;22843;-78
2023/07/07 13:19:38;;;;;;;5.20;2.30;;;;;;;;;;110450;1277;22015;-78
2023/07/07 13:22:11;;;;;;;6.60;2.60;;;;;;;;;;110542;1258;22193;-78
2023/07/07 13:24:42;;;;;;;7.70;2.50;;;;;;;;;;110345;1278;22103;-77
2023/07/07 13:27:14;;;;;;;6.70;2.50;;;;;;;;;;110247;1278;22116;-77
2023/07/07 13:29:42;;;;;;;6.00;2.30;;;;;;;;;;110316;1278;22931;-77
2023/07/07 13:32:42;;;;;;;8.00;2.60;;;;;;;;;;110560;1253;22886;-78
2023/07/07 13:35:10;;;;;;;5.80;2.20;;;;;;;;;;109996;1284;22156;-79
2023/07/07 13:37:38;;;;;;;5.60;2.40;;;;;;;;;;109970;1284;22829;-78
2023/07/07 13:40:15;;;;;;;6.80;2.40;;;;;;;;;;109919;1284;22075;-78
2023/07/07 13:42:50;;;;;;;5.80;2.50;;;;;;;;;;110091;1262;22145;-78
2023/07/07 13:45:26;;;;;;;6.60;2.40;;;;;;;;;;110006;1284;22148;-79
2023/07/07 13:47:54;;;;;;;8.00;4.10;;;;;;;;;;109928;1284;22143;-78
2023/07/07 13:50:24;;;;;;;6.00;2.90;;;;;;;;;;109944;1284;22504;-79
2023/07/07 13:52:59;;;;;;;8.70;2.80;;;;;;;;;;109877;1265;22565;-78
2023/07/07 13:55:30;;;;;;;7.70;2.50;;;;;;;;;;109879;1285;22991;-78
2023/07/07 13:58:01;;;;;;;6.10;2.30;;;;;;;;;;109886;1285;22905;-78
2023/07/07 14:00:33;;;;;;;6.30;2.60;;;;;;;;;;109909;1285;22377;-78
2023/07/07 14:03:03;;;;;;;7.40;2.30;;;;;;;;;;109910;1263;22156;-79
2023/07/07 14:05:34;;;;;;;6.10;2.10;;;;;;;;;;109819;1285;22301;-78
2023/07/07 14:08:07;;;;;;;5.70;2.30;;;;;;;;;;109846;1285;22168;-79
2023/07/07 14:10:42;;;;;;;6.30;2.30;;;;;;;;;;109936;1280;22879;-79
2023/07/07 14:13:19;;;;;;;4.70;1.90;;;;;;;;;;110243;1262;22775;-78
2023/07/07 14:16:01;;;;;;;6.20;2.60;;;;;;;;;;110169;1279;22132;-79
2023/07/07 14:18:38;;;;;;;8.00;2.50;;;;;;;;;;110292;1279;22164;-78
2023/07/07 14:21:09;;;;;;;7.90;2.00;;;;;;;;;;110168;1279;22109;-78
2023/07/07 14:23:40;;;;;;;8.10;2.20;;;;;;;;;;110351;1262;22845;-78
2023/07/07 14:26:15;;;;;;;6.20;2.20;;;;;;;;;;110152;1280;22845;-79
2023/07/07 14:28:45;;;;;;;9.10;2.40;;;;;;;;;;110123;1280;22127;-79
2023/07/07 14:31:14;;;;;;;7.30;2.50;;;;;;;;;;110099;1280;22107;-79
2023/07/07 14:33:49;;;;;;;7.20;2.30;;;;;;;;;;110369;1256;22134;-78
2023/07/07 14:36:27;;;;;;;7.30;2.30;;;;;;;;;;110151;1279;22096;-78
2023/07/07 14:39:06;;;;;;;8.30;3.70;;;;;;;;;;110091;1279;22105;-78
2023/07/07 14:41:36;;;;;;;9.10;3.40;;;;;;;;;;110181;1274;22113;-78
2023/07/07 14:44:06;;;;;;;6.40;2.40;;;;;;;;;;110214;1259;22090;-80
2023/07/07 14:46:37;;;;;;;7.60;2.50;;;;;;;;;;110060;1280;22089;-79
2023/07/07 14:49:19;;;;;;;6.90;2.10;;;;;;;;;;110103;1280;22138;-78
2023/07/07 14:58:54;;;;;;;4.40;1.70;;;;;;;;;;104411;1289;544720;-80
2023/07/07 15:01:22;;;;;;;5.70;2.30;;;;;;;;;;106425;1284;25421;-78
2023/07/07 15:03:49;;;;;;;5.70;2.30;;;;;;;;;;106450;1279;25288;-78
2023/07/07 15:06:32;;;;;;;6.20;2.30;;;;;;;;;;106369;1277;24383;-79
2023/07/07 15:08:59;;;;;;;7.20;2.10;;;;;;;;;;106296;1280;25255;-78
2023/07/07 15:11:31;;;;;;;6.10;2.20;;;;;;;;;;103932;1283;3268208;-83
2023/07/07 15:13:58;;;;;;;6.10;2.20;;;;;;;;;;106357;1282;22524;-82